sensor_id;sensor_type;location;lat;lon;timestamp;pressure;altitude;pressure_sealevel;temperature;humidity
68656;BME280;55638;51.122;13.606;2023-04-28T00:01:10;100431.19;;;3.52;45.07
68656;BME280;55638;51.122;13.606;2023-04-28T00:02:42;100427.63;;;3.51;45.81
68656;BME280;55638;51.122;13.606;2023-04-28T00:04:14;100421.28;;;3.54;45.36
68656;BME280;55638;51.122;13.606;2023-04-28T00:05:47;100417.59;;;3.56;45.13
68656;BME280;55638;51.122;13.606;2023-04-28T00:07:20;100420.28;;;3.56;45.28
68656;BME280;55638;51.122;13.606;2023-04-28T00:08:52;100424.59;;;3.59;45.52
68656;BME280;55638;51.122;13.606;2023-04-28T00:10:23;100411.16;;;3.60;45.49
68656;BME280;55638;51.122;13.606;2023-04-28T00:11:56;100410.09;;;3.64;45.65
68656;BME280;55638;51.122;13.606;2023-04-28T00:13:28;100413.63;;;3.65;45.79
68656;BME280;55638;51.122;13.606;2023-04-28T00:14:59;100412.50;;;3.69;45.70
68656;BME280;55638;51.122;13.606;2023-04-28T00:16:32;100411.50;;;3.72;45.65
68656;BME280;55638;51.122;13.606;2023-04-28T00:18:04;100403.41;;;3.73;45.73
68656;BME280;55638;51.122;13.606;2023-04-28T00:19:36;100410.41;;;3.76;45.57
68656;BME280;55638;51.122;13.606;2023-04-28T00:21:09;100408.59;;;3.76;45.76
68656;BME280;55638;51.122;13.606;2023-04-28T00:22:41;100405.06;;;3.76;46.15
68656;BME280;55638;51.122;13.606;2023-04-28T00:24:12;100397.69;;;3.81;45.62
68656;BME280;55638;51.122;13.606;2023-04-28T00:25:50;100398.56;;;3.81;46.66
68656;BME280;55638;51.122;13.606;2023-04-28T00:27:22;100401.97;;;3.83;45.77
68656;BME280;55638;51.122;13.606;2023-04-28T00:28:54;100397.44;;;3.85;45.89
68656;BME280;55638;51.122;13.606;2023-04-28T00:30:26;100399.09;;;3.88;45.63
68656;BME280;55638;51.122;13.606;2023-04-28T00:31:58;100386.53;;;3.90;45.65
68656;BME280;55638;51.122;13.606;2023-04-28T00:33:29;100391.84;;;3.90;45.63
68656;BME280;55638;51.122;13.606;2023-04-28T00:35:01;100382.94;;;3.91;45.71
68656;BME280;55638;51.122;13.606;2023-04-28T00:36:33;100381.97;;;3.92;45.48
68656;BME280;55638;51.122;13.606;2023-04-28T00:38:07;100381.13;;;3.92;45.58
68656;BME280;55638;51.122;13.606;2023-04-28T00:39:38;100377.59;;;3.91;45.58
68656;BME280;55638;51.122;13.606;2023-04-28T00:41:12;100370.53;;;3.90;45.73
68656;BME280;55638;51.122;13.606;2023-04-28T00:42:45;100369.75;;;3.88;45.62
68656;BME280;55638;51.122;13.606;2023-04-28T00:44:17;100368.91;;;3.87;45.62
68656;BME280;55638;51.122;13.606;2023-04-28T00:45:49;100365.44;;;3.85;45.79
68656;BME280;55638;51.122;13.606;2023-04-28T00:47:21;100359.31;;;3.83;45.52
68656;BME280;55638;51.122;13.606;2023-04-28T00:48:56;100359.41;;;3.82;45.79
68656;BME280;55638;51.122;13.606;2023-04-28T00:50:28;100356.06;;;3.78;45.74
68656;BME280;55638;51.122;13.606;2023-04-28T00:52:03;100363.25;;;3.76;46.09
68656;BME280;55638;51.122;13.606;2023-04-28T00:53:36;100359.81;;;3.74;45.54
68656;BME280;55638;51.122;13.606;2023-04-28T00:55:08;100360.84;;;3.72;46.03
68656;BME280;55638;51.122;13.606;2023-04-28T00:56:42;100352.06;;;3.70;45.78
68656;BME280;55638;51.122;13.606;2023-04-28T00:58:13;100352.22;;;3.66;46.25
68656;BME280;55638;51.122;13.606;2023-04-28T00:59:46;100352.31;;;3.65;46.12
68656;BME280;55638;51.122;13.606;2023-04-28T01:01:18;100352.47;;;3.62;46.36
68656;BME280;55638;51.122;13.606;2023-04-28T01:02:51;100345.38;;;3.61;46.03
68656;BME280;55638;51.122;13.606;2023-04-28T01:04:25;100353.38;;;3.61;46.56
68656;BME280;55638;51.122;13.606;2023-04-28T01:05:58;100347.28;;;3.59;46.25
68656;BME280;55638;51.122;13.606;2023-04-28T01:07:31;100347.28;;;3.59;45.99
68656;BME280;55638;51.122;13.606;2023-04-28T01:09:03;100348.22;;;3.58;45.96
68656;BME280;55638;51.122;13.606;2023-04-28T01:10:42;100352.84;;;3.54;46.76
68656;BME280;55638;51.122;13.606;2023-04-28T01:12:21;100350.13;;;3.56;46.05
68656;BME280;55638;51.122;13.606;2023-04-28T01:13:56;100350.19;;;3.54;46.28
68656;BME280;55638;51.122;13.606;2023-04-28T01:15:31;100352.06;;;3.52;46.28
68656;BME280;55638;51.122;13.606;2023-04-28T01:17:04;100358.28;;;3.53;46.21
68656;BME280;55638;51.122;13.606;2023-04-28T01:18:36;100347.66;;;3.51;45.91
68656;BME280;55638;51.122;13.606;2023-04-28T01:20:08;100345.09;;;3.50;46.00
68656;BME280;55638;51.122;13.606;2023-04-28T01:21:40;100348.72;;;3.49;46.05
68656;BME280;55638;51.122;13.606;2023-04-28T01:23:24;100342.59;;;3.47;45.74
68656;BME280;55638;51.122;13.606;2023-04-28T01:24:56;100344.47;;;3.45;45.67
68656;BME280;55638;51.122;13.606;2023-04-28T01:26:30;100347.28;;;3.41;45.54
68656;BME280;55638;51.122;13.606;2023-04-28T01:28:01;100336.81;;;3.38;45.42
68656;BME280;55638;51.122;13.606;2023-04-28T01:29:33;100340.44;;;3.36;45.56
68656;BME280;55638;51.122;13.606;2023-04-28T01:31:05;100343.28;;;3.33;45.42
68656;BME280;55638;51.122;13.606;2023-04-28T01:32:37;100338.94;;;3.30;45.69
68656;BME280;55638;51.122;13.606;2023-04-28T01:34:09;100335.66;;;3.25;45.72
68656;BME280;55638;51.122;13.606;2023-04-28T01:35:41;100334.09;;;3.21;45.78
68656;BME280;55638;51.122;13.606;2023-04-28T01:37:14;100327.19;;;3.17;45.52
68656;BME280;55638;51.122;13.606;2023-04-28T01:38:45;100322.03;;;3.14;45.40
68656;BME280;55638;51.122;13.606;2023-04-28T01:40:17;100323.13;;;3.10;45.62
68656;BME280;55638;51.122;13.606;2023-04-28T01:41:49;100327.66;;;3.08;45.50
68656;BME280;55638;51.122;13.606;2023-04-28T01:43:21;100326.09;;;3.04;45.64
68656;BME280;55638;51.122;13.606;2023-04-28T01:44:53;100332.44;;;3.01;46.00
68656;BME280;55638;51.122;13.606;2023-04-28T01:46:25;100326.47;;;2.96;45.81
68656;BME280;55638;51.122;13.606;2023-04-28T01:47:57;100330.16;;;2.93;45.86
68656;BME280;55638;51.122;13.606;2023-04-28T01:49:29;100325.03;;;2.89;45.75
68656;BME280;55638;51.122;13.606;2023-04-28T01:51:01;100324.19;;;2.88;45.83
68656;BME280;55638;51.122;13.606;2023-04-28T01:52:34;100319.09;;;2.84;45.92
68656;BME280;55638;51.122;13.606;2023-04-28T01:54:06;100319.25;;;2.81;45.88
68656;BME280;55638;51.122;13.606;2023-04-28T01:55:38;100323.78;;;2.79;45.80
68656;BME280;55638;51.122;13.606;2023-04-28T01:57:10;100315.94;;;2.76;46.07
68656;BME280;55638;51.122;13.606;2023-04-28T01:58:42;100319.59;;;2.73;46.18
68656;BME280;55638;51.122;13.606;2023-04-28T02:00:15;100315.38;;;2.69;46.37
68656;BME280;55638;51.122;13.606;2023-04-28T02:01:52;100320.78;;;2.67;46.03
68656;BME280;55638;51.122;13.606;2023-04-28T02:03:24;100319.13;;;2.65;45.97
68656;BME280;55638;51.122;13.606;2023-04-28T02:04:57;100310.44;;;2.61;46.28
68656;BME280;55638;51.122;13.606;2023-04-28T02:06:29;100314.00;;;2.60;46.38
68656;BME280;55638;51.122;13.606;2023-04-28T02:08:02;100315.97;;;2.57;46.25
68656;BME280;55638;51.122;13.606;2023-04-28T02:09:34;100312.53;;;2.55;46.21
68656;BME280;55638;51.122;13.606;2023-04-28T02:11:06;100308.22;;;2.52;46.30
68656;BME280;55638;51.122;13.606;2023-04-28T02:12:37;100306.50;;;2.51;46.22
68656;BME280;55638;51.122;13.606;2023-04-28T02:14:09;100307.50;;;2.48;46.65
68656;BME280;55638;51.122;13.606;2023-04-28T02:15:42;100306.78;;;2.45;46.52
68656;BME280;55638;51.122;13.606;2023-04-28T02:17:14;100304.19;;;2.43;46.74
68656;BME280;55638;51.122;13.606;2023-04-28T02:18:46;100306.94;;;2.42;46.58
68656;BME280;55638;51.122;13.606;2023-04-28T02:20:18;100303.41;;;2.41;46.68
68656;BME280;55638;51.122;13.606;2023-04-28T02:21:52;100300.81;;;2.40;46.46
68656;BME280;55638;51.122;13.606;2023-04-28T02:23:24;100301.66;;;2.40;46.68
68656;BME280;55638;51.122;13.606;2023-04-28T02:24:56;100303.56;;;2.38;46.73
68656;BME280;55638;51.122;13.606;2023-04-28T02:26:28;100299.16;;;2.37;46.86
68656;BME280;55638;51.122;13.606;2023-04-28T02:27:59;100294.78;;;2.36;46.85
68656;BME280;55638;51.122;13.606;2023-04-28T02:29:31;100290.41;;;2.35;46.89
68656;BME280;55638;51.122;13.606;2023-04-28T02:31:10;100292.25;;;2.33;47.34
68656;BME280;55638;51.122;13.606;2023-04-28T02:32:42;100293.94;;;2.36;47.14
68656;BME280;55638;51.122;13.606;2023-04-28T02:34:14;100285.09;;;2.35;47.01
68656;BME280;55638;51.122;13.606;2023-04-28T02:35:46;100289.47;;;2.36;47.16
68656;BME280;55638;51.122;13.606;2023-04-28T02:37:18;100287.66;;;2.37;47.03
68656;BME280;55638;51.122;13.606;2023-04-28T02:38:52;100294.72;;;2.38;47.41
68656;BME280;55638;51.122;13.606;2023-04-28T02:40:24;100289.41;;;2.38;47.14
68656;BME280;55638;51.122;13.606;2023-04-28T02:41:56;100286.66;;;2.39;47.25
68656;BME280;55638;51.122;13.606;2023-04-28T02:43:28;100288.31;;;2.42;47.43
68656;BME280;55638;51.122;13.606;2023-04-28T02:45:00;100284.72;;;2.43;47.32
68656;BME280;55638;51.122;13.606;2023-04-28T02:46:32;100288.22;;;2.43;47.59
68656;BME280;55638;51.122;13.606;2023-04-28T02:48:04;100283.63;;;2.47;47.55
68656;BME280;55638;51.122;13.606;2023-04-28T02:49:37;100280.03;;;2.48;47.48
68656;BME280;55638;51.122;13.606;2023-04-28T02:51:09;100278.09;;;2.52;47.15
68656;BME280;55638;51.122;13.606;2023-04-28T02:52:42;100280.75;;;2.52;47.63
68656;BME280;55638;51.122;13.606;2023-04-28T02:54:13;100277.94;;;2.55;47.52
68656;BME280;55638;51.122;13.606;2023-04-28T02:55:46;100281.31;;;2.58;47.68
68656;BME280;55638;51.122;13.606;2023-04-28T02:57:18;100271.38;;;2.62;47.74
68656;BME280;55638;51.122;13.606;2023-04-28T02:58:50;100272.94;;;2.66;47.65
68656;BME280;55638;51.122;13.606;2023-04-28T03:00:22;100283.44;;;2.69;48.05
68656;BME280;55638;51.122;13.606;2023-04-28T03:01:54;100275.25;;;2.73;47.87
68656;BME280;55638;51.122;13.606;2023-04-28T03:03:26;100270.53;;;2.79;47.72
68656;BME280;55638;51.122;13.606;2023-04-28T03:04:59;100265.91;;;2.82;47.81
68656;BME280;55638;51.122;13.606;2023-04-28T03:06:31;100274.53;;;2.87;47.94
68656;BME280;55638;51.122;13.606;2023-04-28T03:08:03;100264.66;;;2.89;48.05
68656;BME280;55638;51.122;13.606;2023-04-28T03:09:35;100259.03;;;2.95;47.82
68656;BME280;55638;51.122;13.606;2023-04-28T03:11:07;100259.56;;;3.02;47.70
68656;BME280;55638;51.122;13.606;2023-04-28T03:12:40;100256.75;;;3.05;47.79
68656;BME280;55638;51.122;13.606;2023-04-28T03:14:11;100250.34;;;3.09;47.83
68656;BME280;55638;51.122;13.606;2023-04-28T03:15:43;100237.66;;;3.14;47.78
68656;BME280;55638;51.122;13.606;2023-04-28T03:17:15;100240.09;;;3.19;47.65
68656;BME280;55638;51.122;13.606;2023-04-28T03:18:47;100235.47;;;3.23;47.38
68656;BME280;55638;51.122;13.606;2023-04-28T03:20:19;100229.09;;;3.25;47.42
68656;BME280;55638;51.122;13.606;2023-04-28T03:21:51;100227.06;;;3.30;47.20
68656;BME280;55638;51.122;13.606;2023-04-28T03:23:23;100237.63;;;3.32;47.29
68656;BME280;55638;51.122;13.606;2023-04-28T03:24:55;100236.59;;;3.34;47.11
68656;BME280;55638;51.122;13.606;2023-04-28T03:26:28;100226.72;;;3.36;46.95
68656;BME280;55638;51.122;13.606;2023-04-28T03:28:01;100229.34;;;3.38;47.02
68656;BME280;55638;51.122;13.606;2023-04-28T03:29:34;100224.88;;;3.38;47.07
68656;BME280;55638;51.122;13.606;2023-04-28T03:31:06;100224.78;;;3.40;46.75
68656;BME280;55638;51.122;13.606;2023-04-28T03:32:37;100231.94;;;3.39;46.89
68656;BME280;55638;51.122;13.606;2023-04-28T03:34:10;100228.41;;;3.39;47.03
68656;BME280;55638;51.122;13.606;2023-04-28T03:35:42;100223.13;;;3.37;46.98
68656;BME280;55638;51.122;13.606;2023-04-28T03:37:14;100217.88;;;3.36;47.09
68656;BME280;55638;51.122;13.606;2023-04-28T03:38:46;100222.34;;;3.35;46.86
68656;BME280;55638;51.122;13.606;2023-04-28T03:40:18;100228.59;;;3.34;46.74
68656;BME280;55638;51.122;13.606;2023-04-28T03:42:13;100233.06;;;3.34;46.64
68656;BME280;55638;51.122;13.606;2023-04-28T03:44:11;100228.69;;;3.33;46.58
68656;BME280;55638;51.122;13.606;2023-04-28T03:45:51;100224.28;;;3.32;46.69
68656;BME280;55638;51.122;13.606;2023-04-28T03:47:23;100232.38;;;3.30;46.86
68656;BME280;55638;51.122;13.606;2023-04-28T03:48:55;100217.50;;;3.26;46.63
68656;BME280;55638;51.122;13.606;2023-04-28T03:50:28;100225.56;;;3.25;46.74
68656;BME280;55638;51.122;13.606;2023-04-28T03:52:00;100225.66;;;3.23;46.90
68656;BME280;55638;51.122;13.606;2023-04-28T03:53:32;100229.25;;;3.22;47.11
68656;BME280;55638;51.122;13.606;2023-04-28T03:55:04;100218.78;;;3.19;47.00
68656;BME280;55638;51.122;13.606;2023-04-28T03:56:37;100228.47;;;3.20;47.25
68656;BME280;55638;51.122;13.606;2023-04-28T03:58:08;100221.44;;;3.19;47.19
68656;BME280;55638;51.122;13.606;2023-04-28T03:59:40;100227.53;;;3.21;47.23
68656;BME280;55638;51.122;13.606;2023-04-28T04:01:14;100224.97;;;3.19;47.46
68656;BME280;55638;51.122;13.606;2023-04-28T04:02:46;100216.88;;;3.21;47.51
68656;BME280;55638;51.122;13.606;2023-04-28T04:04:19;100213.25;;;3.22;47.44
68656;BME280;55638;51.122;13.606;2023-04-28T04:05:52;100203.41;;;3.24;47.44
68656;BME280;55638;51.122;13.606;2023-04-28T04:07:25;100204.19;;;3.26;47.50
68656;BME280;55638;51.122;13.606;2023-04-28T04:08:57;100197.75;;;3.30;47.39
68656;BME280;55638;51.122;13.606;2023-04-28T04:10:29;100199.47;;;3.31;47.65
68656;BME280;55638;51.122;13.606;2023-04-28T04:12:02;100189.50;;;3.35;47.82
68656;BME280;55638;51.122;13.606;2023-04-28T04:13:34;100198.25;;;3.38;47.94
68656;BME280;55638;51.122;13.606;2023-04-28T04:15:10;100189.13;;;3.42;47.49
68656;BME280;55638;51.122;13.606;2023-04-28T04:16:43;100188.13;;;3.45;47.62
68656;BME280;55638;51.122;13.606;2023-04-28T04:18:17;100185.25;;;3.48;48.26
68656;BME280;55638;51.122;13.606;2023-04-28T04:20:13;100184.06;;;3.54;47.87
68656;BME280;55638;51.122;13.606;2023-04-28T04:21:45;100187.25;;;3.60;47.58
68656;BME280;55638;51.122;13.606;2023-04-28T04:23:16;100181.69;;;3.65;47.76
68656;BME280;55638;51.122;13.606;2023-04-28T04:24:48;100177.06;;;3.69;47.69
68656;BME280;55638;51.122;13.606;2023-04-28T04:26:21;100172.31;;;3.74;47.81
68656;BME280;55638;51.122;13.606;2023-04-28T04:27:54;100166.63;;;3.80;47.52
68656;BME280;55638;51.122;13.606;2023-04-28T04:29:26;100169.06;;;3.84;47.53
68656;BME280;55638;51.122;13.606;2023-04-28T04:30:58;100175.78;;;3.92;47.58
68656;BME280;55638;51.122;13.606;2023-04-28T04:32:30;100177.31;;;3.96;47.63
68656;BME280;55638;51.122;13.606;2023-04-28T04:34:02;100177.06;;;4.00;47.95
68656;BME280;55638;51.122;13.606;2023-04-28T04:35:33;100175.94;;;4.04;47.86
68656;BME280;55638;51.122;13.606;2023-04-28T04:37:06;100167.66;;;4.09;47.78
68656;BME280;55638;51.122;13.606;2023-04-28T04:38:40;100164.59;;;4.17;47.66
68656;BME280;55638;51.122;13.606;2023-04-28T04:40:19;100173.09;;;4.23;47.36
68656;BME280;55638;51.122;13.606;2023-04-28T04:41:53;100171.09;;;4.27;47.46
68656;BME280;55638;51.122;13.606;2023-04-28T04:43:48;100167.13;;;4.34;47.35
68656;BME280;55638;51.122;13.606;2023-04-28T04:45:20;100156.94;;;4.41;47.14
68656;BME280;55638;51.122;13.606;2023-04-28T04:46:53;100166.31;;;4.48;47.21
68656;BME280;55638;51.122;13.606;2023-04-28T04:48:25;100156.25;;;4.53;47.37
68656;BME280;55638;51.122;13.606;2023-04-28T04:49:57;100152.31;;;4.58;47.26
68656;BME280;55638;51.122;13.606;2023-04-28T04:51:29;100159.22;;;4.63;47.37
68656;BME280;55638;51.122;13.606;2023-04-28T04:53:01;100147.41;;;4.67;47.09
68656;BME280;55638;51.122;13.606;2023-04-28T04:54:33;100143.41;;;4.74;46.91
68656;BME280;55638;51.122;13.606;2023-04-28T04:56:05;100155.63;;;4.78;46.86
68656;BME280;55638;51.122;13.606;2023-04-28T04:57:39;100144.56;;;4.84;46.95
68656;BME280;55638;51.122;13.606;2023-04-28T04:59:15;100139.91;;;4.88;46.96
68656;BME280;55638;51.122;13.606;2023-04-28T05:00:52;100151.19;;;4.93;46.80
68656;BME280;55638;51.122;13.606;2023-04-28T05:02:25;100149.19;;;4.96;46.78
68656;BME280;55638;51.122;13.606;2023-04-28T05:03:56;100154.16;;;5.02;46.55
68656;BME280;55638;51.122;13.606;2023-04-28T05:05:29;100149.47;;;5.06;46.60
68656;BME280;55638;51.122;13.606;2023-04-28T05:07:10;100152.63;;;5.13;46.49
68656;BME280;55638;51.122;13.606;2023-04-28T05:08:44;100146.13;;;5.17;46.28
68656;BME280;55638;51.122;13.606;2023-04-28T05:10:16;100144.13;;;5.20;46.21
68656;BME280;55638;51.122;13.606;2023-04-28T05:11:48;100147.50;;;5.24;46.33
68656;BME280;55638;51.122;13.606;2023-04-28T05:13:20;100135.78;;;5.26;46.33
68656;BME280;55638;51.122;13.606;2023-04-28T05:14:58;100140.84;;;5.31;46.27
68656;BME280;55638;51.122;13.606;2023-04-28T05:16:30;100138.91;;;5.33;46.27
68656;BME280;55638;51.122;13.606;2023-04-28T05:18:06;100136.94;;;5.37;46.17
68656;BME280;55638;51.122;13.606;2023-04-28T05:19:41;100130.44;;;5.41;46.18
68656;BME280;55638;51.122;13.606;2023-04-28T05:21:13;100132.91;;;5.44;46.17
68656;BME280;55638;51.122;13.606;2023-04-28T05:22:45;100130.78;;;5.49;46.07
68656;BME280;55638;51.122;13.606;2023-04-28T05:24:17;100125.25;;;5.52;46.22
68656;BME280;55638;51.122;13.606;2023-04-28T05:25:52;100128.50;;;5.57;46.09
68656;BME280;55638;51.122;13.606;2023-04-28T05:27:24;100120.19;;;5.62;46.08
68656;BME280;55638;51.122;13.606;2023-04-28T05:28:57;100117.44;;;5.63;46.10
68656;BME280;55638;51.122;13.606;2023-04-28T05:30:29;100118.94;;;5.67;46.03
68656;BME280;55638;51.122;13.606;2023-04-28T05:32:01;100116.84;;;5.72;46.02
68656;BME280;55638;51.122;13.606;2023-04-28T05:33:34;100113.00;;;5.76;46.05
68656;BME280;55638;51.122;13.606;2023-04-28T05:35:06;100106.16;;;5.85;45.99
68656;BME280;55638;51.122;13.606;2023-04-28T05:36:38;100097.94;;;5.88;46.13
68656;BME280;55638;51.122;13.606;2023-04-28T05:38:12;100106.44;;;5.95;46.12
68656;BME280;55638;51.122;13.606;2023-04-28T05:39:46;100092.75;;;5.99;45.94
68656;BME280;55638;51.122;13.606;2023-04-28T05:41:18;100100.00;;;6.12;45.80
68656;BME280;55638;51.122;13.606;2023-04-28T05:42:50;100092.28;;;6.20;45.84
68656;BME280;55638;51.122;13.606;2023-04-28T05:44:22;100097.34;;;6.25;45.39
68656;BME280;55638;51.122;13.606;2023-04-28T05:45:54;100099.50;;;6.32;45.35
68656;BME280;55638;51.122;13.606;2023-04-28T05:47:26;100098.25;;;6.38;45.13
68656;BME280;55638;51.122;13.606;2023-04-28T05:48:59;100094.19;;;6.45;45.12
68656;BME280;55638;51.122;13.606;2023-04-28T05:50:36;100096.31;;;6.53;45.22
68656;BME280;55638;51.122;13.606;2023-04-28T05:52:09;100096.88;;;6.58;45.03
68656;BME280;55638;51.122;13.606;2023-04-28T05:53:41;100094.84;;;6.61;44.94
68656;BME280;55638;51.122;13.606;2023-04-28T05:55:13;100105.34;;;6.64;44.86
68656;BME280;55638;51.122;13.606;2023-04-28T05:56:46;100097.84;;;6.69;44.63
68656;BME280;55638;51.122;13.606;2023-04-28T05:58:18;100090.69;;;6.70;45.03
68656;BME280;55638;51.122;13.606;2023-04-28T05:59:50;100094.75;;;6.76;44.87
68656;BME280;55638;51.122;13.606;2023-04-28T06:01:22;100096.28;;;6.80;45.05
68656;BME280;55638;51.122;13.606;2023-04-28T06:02:54;100095.56;;;6.90;45.37
68656;BME280;55638;51.122;13.606;2023-04-28T06:04:26;100096.75;;;6.99;45.26
68656;BME280;55638;51.122;13.606;2023-04-28T06:05:58;100095.75;;;7.13;45.46
68656;BME280;55638;51.122;13.606;2023-04-28T06:07:30;100087.59;;;7.27;45.42
68656;BME280;55638;51.122;13.606;2023-04-28T06:09:02;100085.19;;;7.48;45.75
68656;BME280;55638;51.122;13.606;2023-04-28T06:10:36;100092.19;;;7.75;45.93
68656;BME280;55638;51.122;13.606;2023-04-28T06:12:08;100088.53;;;8.00;45.33
68656;BME280;55638;51.122;13.606;2023-04-28T06:13:40;100081.28;;;8.26;45.72
68656;BME280;55638;51.122;13.606;2023-04-28T06:15:12;100092.22;;;8.58;45.22
68656;BME280;55638;51.122;13.606;2023-04-28T06:16:44;100096.31;;;8.86;44.47
68656;BME280;55638;51.122;13.606;2023-04-28T06:18:16;100089.66;;;9.14;43.70
68656;BME280;55638;51.122;13.606;2023-04-28T06:19:48;100085.59;;;9.42;43.32
68656;BME280;55638;51.122;13.606;2023-04-28T06:21:22;100090.28;;;9.63;42.43
68656;BME280;55638;51.122;13.606;2023-04-28T06:22:55;100088.50;;;9.84;42.26
68656;BME280;55638;51.122;13.606;2023-04-28T06:24:27;100081.47;;;10.04;41.97
68656;BME280;55638;51.122;13.606;2023-04-28T06:26:01;100076.50;;;10.20;41.85
68656;BME280;55638;51.122;13.606;2023-04-28T06:27:32;100077.31;;;10.32;41.65
68656;BME280;55638;51.122;13.606;2023-04-28T06:29:04;100074.56;;;10.43;41.37
68656;BME280;55638;51.122;13.606;2023-04-28T06:30:36;100080.56;;;10.47;40.79
68656;BME280;55638;51.122;13.606;2023-04-28T06:32:08;100075.25;;;10.57;40.88
68656;BME280;55638;51.122;13.606;2023-04-28T06:33:40;100080.38;;;10.60;40.49
68656;BME280;55638;51.122;13.606;2023-04-28T06:35:12;100067.34;;;10.65;40.53
68656;BME280;55638;51.122;13.606;2023-04-28T06:36:44;100073.25;;;10.70;40.69
68656;BME280;55638;51.122;13.606;2023-04-28T06:38:16;100066.59;;;10.74;40.49
68656;BME280;55638;51.122;13.606;2023-04-28T06:39:48;100078.56;;;10.81;40.52
68656;BME280;55638;51.122;13.606;2023-04-28T06:41:20;100072.91;;;10.84;40.74
68656;BME280;55638;51.122;13.606;2023-04-28T06:42:54;100079.03;;;10.86;40.60
68656;BME280;55638;51.122;13.606;2023-04-28T06:44:39;100066.72;;;10.94;40.59
68656;BME280;55638;51.122;13.606;2023-04-28T06:46:11;100067.16;;;10.99;40.77
68656;BME280;55638;51.122;13.606;2023-04-28T06:47:42;100064.19;;;11.02;40.59
68656;BME280;55638;51.122;13.606;2023-04-28T06:49:15;100063.81;;;11.06;40.32
68656;BME280;55638;51.122;13.606;2023-04-28T06:50:47;100057.13;;;11.10;40.14
68656;BME280;55638;51.122;13.606;2023-04-28T06:52:18;100058.28;;;11.18;40.28
68656;BME280;55638;51.122;13.606;2023-04-28T06:54:03;100064.84;;;11.25;40.01
68656;BME280;55638;51.122;13.606;2023-04-28T06:55:37;100064.19;;;11.32;40.15
68656;BME280;55638;51.122;13.606;2023-04-28T06:57:09;100044.59;;;11.40;39.98
68656;BME280;55638;51.122;13.606;2023-04-28T06:58:41;100052.03;;;11.48;39.71
68656;BME280;55638;51.122;13.606;2023-04-28T07:00:13;100054.44;;;11.51;39.16
68656;BME280;55638;51.122;13.606;2023-04-28T07:01:45;100044.94;;;11.56;39.13
68656;BME280;55638;51.122;13.606;2023-04-28T07:03:17;100043.97;;;11.57;38.71
68656;BME280;55638;51.122;13.606;2023-04-28T07:04:49;100041.56;;;11.64;38.72
68656;BME280;55638;51.122;13.606;2023-04-28T07:06:21;100036.00;;;11.66;38.43
68656;BME280;55638;51.122;13.606;2023-04-28T07:07:53;100039.56;;;11.66;37.83
68656;BME280;55638;51.122;13.606;2023-04-28T07:09:25;100042.44;;;11.74;38.15
68656;BME280;55638;51.122;13.606;2023-04-28T07:10:57;100036.34;;;11.82;38.04
68656;BME280;55638;51.122;13.606;2023-04-28T07:12:29;100040.34;;;11.88;37.86
68656;BME280;55638;51.122;13.606;2023-04-28T07:14:01;100041.50;;;11.95;37.41
68656;BME280;55638;51.122;13.606;2023-04-28T07:15:33;100036.94;;;12.05;37.68
68656;BME280;55638;51.122;13.606;2023-04-28T07:17:05;100036.81;;;12.16;38.11
68656;BME280;55638;51.122;13.606;2023-04-28T07:18:37;100037.50;;;12.28;37.88
68656;BME280;55638;51.122;13.606;2023-04-28T07:20:09;100040.66;;;12.43;37.99
68656;BME280;55638;51.122;13.606;2023-04-28T07:21:41;100036.78;;;12.55;37.82
68656;BME280;55638;51.122;13.606;2023-04-28T07:23:13;100034.75;;;12.67;37.94
68656;BME280;55638;51.122;13.606;2023-04-28T07:24:45;100032.50;;;12.82;37.79
68656;BME280;55638;51.122;13.606;2023-04-28T07:26:17;100037.72;;;12.93;37.55
68656;BME280;55638;51.122;13.606;2023-04-28T07:27:49;100031.72;;;12.99;36.95
68656;BME280;55638;51.122;13.606;2023-04-28T07:29:21;100034.94;;;13.12;37.11
68656;BME280;55638;51.122;13.606;2023-04-28T07:30:53;100024.91;;;13.22;37.04
68656;BME280;55638;51.122;13.606;2023-04-28T07:32:24;100024.63;;;13.26;36.31
68656;BME280;55638;51.122;13.606;2023-04-28T07:33:56;100020.63;;;13.30;35.91
68656;BME280;55638;51.122;13.606;2023-04-28T07:35:28;100019.31;;;13.34;35.70
68656;BME280;55638;51.122;13.606;2023-04-28T07:37:01;100019.41;;;13.42;35.50
68656;BME280;55638;51.122;13.606;2023-04-28T07:38:34;100014.94;;;13.51;35.97
68656;BME280;55638;51.122;13.606;2023-04-28T07:40:06;100014.81;;;13.70;36.61
68656;BME280;55638;51.122;13.606;2023-04-28T07:41:39;100009.31;;;13.89;36.69
68656;BME280;55638;51.122;13.606;2023-04-28T07:43:11;100012.31;;;14.04;36.33
68656;BME280;55638;51.122;13.606;2023-04-28T07:44:42;100008.44;;;14.25;36.39
68656;BME280;55638;51.122;13.606;2023-04-28T07:46:14;100009.97;;;14.45;36.01
68656;BME280;55638;51.122;13.606;2023-04-28T07:47:46;100010.31;;;14.68;35.75
68656;BME280;55638;51.122;13.606;2023-04-28T07:49:18;100009.56;;;14.84;35.16
68656;BME280;55638;51.122;13.606;2023-04-28T07:50:50;100005.78;;;15.03;35.01
68656;BME280;55638;51.122;13.606;2023-04-28T07:52:22;100000.75;;;15.16;34.16
68656;BME280;55638;51.122;13.606;2023-04-28T07:53:54;100006.41;;;15.31;33.89
68656;BME280;55638;51.122;13.606;2023-04-28T07:55:26;99997.66;;;15.45;33.48
68656;BME280;55638;51.122;13.606;2023-04-28T07:56:58;99999.41;;;15.54;33.34
68656;BME280;55638;51.122;13.606;2023-04-28T07:58:30;100000.78;;;15.59;33.25
68656;BME280;55638;51.122;13.606;2023-04-28T08:00:02;99995.16;;;15.60;32.87
68656;BME280;55638;51.122;13.606;2023-04-28T08:01:42;99992.28;;;15.62;32.84
68656;BME280;55638;51.122;13.606;2023-04-28T08:03:14;99988.41;;;15.64;33.19
68656;BME280;55638;51.122;13.606;2023-04-28T08:04:46;99991.63;;;15.68;33.00